sensor_id;sensor_type;location;lat;lon;timestamp;pressure;altitude;pressure_sealevel;temperature;humidity
64343;BME280;50675;53.530;-6.312;2023-05-20T00:04:30;102458.22;;;17.23;56.87
64343;BME280;50675;53.530;-6.312;2023-05-20T00:07:05;102452.44;;;17.20;56.79
64343;BME280;50675;53.530;-6.312;2023-05-20T00:09:58;102441.16;;;17.16;56.87
64343;BME280;50675;53.530;-6.312;2023-05-20T00:13:02;102437.19;;;17.07;56.77
64343;BME280;50675;53.530;-6.312;2023-05-20T00:16:03;102441.81;;;17.06;56.87
64343;BME280;50675;53.530;-6.312;2023-05-20T00:30:37;102454.06;;;17.04;56.98
64343;BME280;50675;53.530;-6.312;2023-05-20T00:33:11;102446.13;;;17.02;57.25
64343;BME280;50675;53.530;-6.312;2023-05-20T00:35:46;102442.06;;;17.05;57.11
64343;BME280;50675;53.530;-6.312;2023-05-20T00:38:12;102432.13;;;16.99;57.26
64343;BME280;50675;53.530;-6.312;2023-05-20T00:40:46;102434.38;;;17.02;57.00
64343;BME280;50675;53.530;-6.312;2023-05-20T00:43:12;102429.41;;;16.99;57.25
64343;BME280;50675;53.530;-6.312;2023-05-20T00:58:20;102427.00;;;17.02;57.50
64343;BME280;50675;53.530;-6.312;2023-05-20T01:00:49;102421.22;;;16.99;57.56
64343;BME280;50675;53.530;-6.312;2023-05-20T01:03:15;102419.09;;;17.01;57.53
64343;BME280;50675;53.530;-6.312;2023-05-20T01:10:23;102417.00;;;17.08;57.47
64343;BME280;50675;53.530;-6.312;2023-05-20T01:13:07;102404.09;;;17.03;57.85
64343;BME280;50675;53.530;-6.312;2023-05-20T01:15:39;102400.78;;;17.01;57.77
64343;BME280;50675;53.530;-6.312;2023-05-20T01:18:11;102401.38;;;17.03;57.63
64343;BME280;50675;53.530;-6.312;2023-05-20T01:20:50;102403.25;;;17.03;57.98
64343;BME280;50675;53.530;-6.312;2023-05-20T01:23:45;102406.00;;;17.03;57.65
64343;BME280;50675;53.530;-6.312;2023-05-20T01:26:16;102401.59;;;17.02;57.87
64343;BME280;50675;53.530;-6.312;2023-05-20T01:28:43;102401.38;;;17.03;58.11
64343;BME280;50675;53.530;-6.312;2023-05-20T01:34:54;102402.28;;;17.09;57.82
64343;BME280;50675;53.530;-6.312;2023-05-20T01:37:49;102395.75;;;17.10;58.04
64343;BME280;50675;53.530;-6.312;2023-05-20T01:40:26;102387.19;;;17.06;57.94
64343;BME280;50675;53.530;-6.312;2023-05-20T01:43:06;102383.16;;;17.09;57.91
64343;BME280;50675;53.530;-6.312;2023-05-20T01:45:32;102383.16;;;17.09;58.04
64343;BME280;50675;53.530;-6.312;2023-05-20T01:48:13;102393.84;;;17.11;57.91
64343;BME280;50675;53.530;-6.312;2023-05-20T01:50:42;102390.84;;;17.12;58.18
64343;BME280;50675;53.530;-6.312;2023-05-20T01:53:14;102385.91;;;17.09;58.20
64343;BME280;50675;53.530;-6.312;2023-05-20T01:55:42;102384.31;;;17.13;58.21
64343;BME280;50675;53.530;-6.312;2023-05-20T01:58:08;102376.88;;;17.09;58.41
64343;BME280;50675;53.530;-6.312;2023-05-20T02:00:37;102375.28;;;17.13;58.43
64343;BME280;50675;53.530;-6.312;2023-05-20T02:03:13;102376.13;;;17.13;58.32
64343;BME280;50675;53.530;-6.312;2023-05-20T02:05:48;102376.13;;;17.13;58.30
64343;BME280;50675;53.530;-6.312;2023-05-20T02:08:22;102376.94;;;17.14;58.44
64343;BME280;50675;53.530;-6.312;2023-05-20T02:10:57;102382.16;;;17.15;58.13
64343;BME280;50675;53.530;-6.312;2023-05-20T02:33:03;102365.88;;;17.03;58.44
64343;BME280;50675;53.530;-6.312;2023-05-20T02:35:32;102364.72;;;16.99;58.63
64343;BME280;50675;53.530;-6.312;2023-05-20T02:38:13;102369.59;;;16.97;58.67
64343;BME280;50675;53.530;-6.312;2023-05-20T02:40:45;102371.84;;;17.00;58.61
64343;BME280;50675;53.530;-6.312;2023-05-20T02:43:11;102361.06;;;16.94;58.63
64343;BME280;50675;53.530;-6.312;2023-05-20T02:45:58;102356.44;;;16.94;58.59
64343;BME280;50675;53.530;-6.312;2023-05-20T02:48:27;102361.06;;;16.94;58.83
64343;BME280;50675;53.530;-6.312;2023-05-20T02:51:04;102352.81;;;16.89;58.87
64343;BME280;50675;53.530;-6.312;2023-05-20T02:53:30;102345.69;;;16.88;58.59
64343;BME280;50675;53.530;-6.312;2023-05-20T02:55:56;102350.31;;;16.87;58.78
64343;BME280;50675;53.530;-6.312;2023-05-20T02:58:26;102341.81;;;16.84;58.61
64343;BME280;50675;53.530;-6.312;2023-05-20T03:00:57;102338.50;;;16.82;58.85
64343;BME280;50675;53.530;-6.312;2023-05-20T03:03:26;102344.06;;;16.87;58.89
64343;BME280;50675;53.530;-6.312;2023-05-20T03:06:14;102340.16;;;16.83;58.73
64343;BME280;50675;53.530;-6.312;2023-05-20T03:08:56;102345.59;;;16.83;58.96
64343;BME280;50675;53.530;-6.312;2023-05-20T03:19:49;102325.19;;;16.69;58.91
64343;BME280;50675;53.530;-6.312;2023-05-20T03:22:15;102329.56;;;16.70;59.10
64343;BME280;50675;53.530;-6.312;2023-05-20T03:24:52;102318.56;;;16.65;59.03
64343;BME280;50675;53.530;-6.312;2023-05-20T03:27:21;102326.53;;;16.66;58.94
64343;BME280;50675;53.530;-6.312;2023-05-20T03:29:59;102319.09;;;16.61;59.07
64343;BME280;50675;53.530;-6.312;2023-05-20T03:32:26;102330.22;;;16.60;59.12
64343;BME280;50675;53.530;-6.312;2023-05-20T03:34:52;102325.47;;;16.55;59.15
64343;BME280;50675;53.530;-6.312;2023-05-20T03:40:19;102319.94;;;16.50;59.14
64343;BME280;50675;53.530;-6.312;2023-05-20T03:43:19;102319.72;;;16.52;59.11
64343;BME280;50675;53.530;-6.312;2023-05-20T03:45:56;102318.28;;;16.49;59.05
64343;BME280;50675;53.530;-6.312;2023-05-20T03:48:37;102302.75;;;16.50;59.20
64343;BME280;50675;53.530;-6.312;2023-05-20T03:52:08;102311.75;;;16.50;59.19
64343;BME280;50675;53.530;-6.312;2023-05-20T03:55:05;102300.53;;;16.47;59.46
64343;BME280;50675;53.530;-6.312;2023-05-20T04:00:51;102296.47;;;16.49;59.08
64343;BME280;50675;53.530;-6.312;2023-05-20T04:03:52;102308.09;;;16.45;59.30
64343;BME280;50675;53.530;-6.312;2023-05-20T04:13:31;102312.72;;;16.44;59.43
64343;BME280;50675;53.530;-6.312;2023-05-20T04:16:43;102304.00;;;16.42;59.27
64343;BME280;50675;53.530;-6.312;2023-05-20T04:19:20;102304.00;;;16.42;59.33
64343;BME280;50675;53.530;-6.312;2023-05-20T04:22:10;102309.22;;;16.44;59.48
64343;BME280;50675;53.530;-6.312;2023-05-20T04:25:15;102311.34;;;16.42;59.31
64343;BME280;50675;53.530;-6.312;2023-05-20T04:27:48;102294.06;;;16.36;59.57
64343;BME280;50675;53.530;-6.312;2023-05-20T04:31:18;102306.13;;;16.40;59.64
64343;BME280;50675;53.530;-6.312;2023-05-20T04:39:57;102313.56;;;16.45;59.54
64343;BME280;50675;53.530;-6.312;2023-05-20T04:42:38;102305.22;;;16.35;59.54
64343;BME280;50675;53.530;-6.312;2023-05-20T04:45:10;102306.13;;;16.40;59.60
64343;BME280;50675;53.530;-6.312;2023-05-20T04:47:37;102300.94;;;16.39;59.55
64343;BME280;50675;53.530;-6.312;2023-05-20T04:50:10;102306.81;;;16.47;59.62
64343;BME280;50675;53.530;-6.312;2023-05-20T04:52:44;102302.25;;;16.36;59.71
64343;BME280;50675;53.530;-6.312;2023-05-20T04:55:11;102302.84;;;16.38;59.56
64343;BME280;50675;53.530;-6.312;2023-05-20T04:57:44;102294.56;;;16.33;59.66
64343;BME280;50675;53.530;-6.312;2023-05-20T05:12:38;102293.88;;;16.26;59.89
64343;BME280;50675;53.530;-6.312;2023-05-20T05:15:19;102293.78;;;16.21;59.86
64343;BME280;50675;53.530;-6.312;2023-05-20T05:17:53;102290.09;;;16.27;59.83
64343;BME280;50675;53.530;-6.312;2023-05-20T05:20:22;102291.75;;;16.28;59.95
64343;BME280;50675;53.530;-6.312;2023-05-20T05:22:55;102313.16;;;16.36;59.96
64343;BME280;50675;53.530;-6.312;2023-05-20T05:25:28;102297.38;;;16.55;60.04
64343;BME280;50675;53.530;-6.312;2023-05-20T05:27:58;102292.34;;;16.47;60.02
64343;BME280;50675;53.530;-6.312;2023-05-20T05:30:24;102295.47;;;16.39;60.17
64343;BME280;50675;53.530;-6.312;2023-05-20T05:32:53;102290.28;;;16.37;60.02
64343;BME280;50675;53.530;-6.312;2023-05-20T05:35:32;102296.56;;;16.38;60.09
64343;BME280;50675;53.530;-6.312;2023-05-20T05:38:01;102295.72;;;16.37;60.25
64343;BME280;50675;53.530;-6.312;2023-05-20T05:40:49;102304.22;;;16.41;60.36
64343;BME280;50675;53.530;-6.312;2023-05-20T05:43:50;102300.44;;;16.42;60.17
64343;BME280;50675;53.530;-6.312;2023-05-20T05:46:20;102298.53;;;16.42;60.32
64343;BME280;50675;53.530;-6.312;2023-05-20T05:49:22;102295.97;;;16.52;60.05
64343;BME280;50675;53.530;-6.312;2023-05-20T05:59:29;102301.03;;;16.60;60.30
64343;BME280;50675;53.530;-6.312;2023-05-20T06:02:08;102293.94;;;16.59;60.51
64343;BME280;50675;53.530;-6.312;2023-05-20T06:04:35;102298.63;;;16.64;60.54
64343;BME280;50675;53.530;-6.312;2023-05-20T06:07:01;102295.75;;;16.71;60.38
64343;BME280;50675;53.530;-6.312;2023-05-20T06:09:26;102299.41;;;16.76;60.64
64343;BME280;50675;53.530;-6.312;2023-05-20T06:11:52;102292.28;;;16.75;60.50
64343;BME280;50675;53.530;-6.312;2023-05-20T06:14:18;102297.22;;;16.78;60.44
64343;BME280;50675;53.530;-6.312;2023-05-20T06:16:44;102300.31;;;16.82;60.70
64343;BME280;50675;53.530;-6.312;2023-05-20T06:19:09;102308.22;;;16.83;60.81
64343;BME280;50675;53.530;-6.312;2023-05-20T06:21:35;102304.66;;;16.83;60.81
64343;BME280;50675;53.530;-6.312;2023-05-20T06:24:01;102296.81;;;16.86;60.50
64343;BME280;50675;53.530;-6.312;2023-05-20T06:26:27;102297.38;;;16.88;60.79
64343;BME280;50675;53.530;-6.312;2023-05-20T06:28:52;102297.72;;;16.92;60.82
64343;BME280;50675;53.530;-6.312;2023-05-20T06:31:18;102303.75;;;16.94;60.81
64343;BME280;50675;53.530;-6.312;2023-05-20T06:33:44;102303.50;;;16.95;60.86
64343;BME280;50675;53.530;-6.312;2023-05-20T06:36:10;102306.81;;;16.97;60.89
64343;BME280;50675;53.530;-6.312;2023-05-20T06:38:36;102319.13;;;17.00;61.00
64343;BME280;50675;53.530;-6.312;2023-05-20T06:41:02;102311.50;;;17.02;60.99
64343;BME280;50675;53.530;-6.312;2023-05-20T06:43:28;102307.47;;;17.04;61.10
64343;BME280;50675;53.530;-6.312;2023-05-20T06:45:54;102304.47;;;17.06;60.99
64343;BME280;50675;53.530;-6.312;2023-05-20T06:48:20;102304.22;;;17.08;61.05
64343;BME280;50675;53.530;-6.312;2023-05-20T06:50:46;102301.00;;;17.11;61.02
64343;BME280;50675;53.530;-6.312;2023-05-20T06:53:11;102317.72;;;17.14;60.92
64343;BME280;50675;53.530;-6.312;2023-05-20T06:55:37;102309.00;;;17.17;61.09
64343;BME280;50675;53.530;-6.312;2023-05-20T06:58:03;102307.94;;;17.18;61.25
64343;BME280;50675;53.530;-6.312;2023-05-20T07:00:28;102305.28;;;17.23;61.04
64343;BME280;50675;53.530;-6.312;2023-05-20T07:02:54;102310.22;;;17.26;61.16
64343;BME280;50675;53.530;-6.312;2023-05-20T07:05:20;102303.09;;;17.25;61.17
64343;BME280;50675;53.530;-6.312;2023-05-20T07:07:46;102304.28;;;17.29;61.27
64343;BME280;50675;53.530;-6.312;2023-05-20T07:10:11;102306.25;;;17.34;61.23
64343;BME280;50675;53.530;-6.312;2023-05-20T07:12:37;102304.06;;;17.36;61.29
64343;BME280;50675;53.530;-6.312;2023-05-20T07:15:03;102307.63;;;17.36;61.55
64343;BME280;50675;53.530;-6.312;2023-05-20T07:17:29;102314.81;;;17.42;61.47
64343;BME280;50675;53.530;-6.312;2023-05-20T07:19:54;102307.53;;;17.48;61.43
64343;BME280;50675;53.530;-6.312;2023-05-20T07:22:21;102311.09;;;17.48;61.43
64343;BME280;50675;53.530;-6.312;2023-05-20T07:24:46;102311.13;;;17.54;61.19
64343;BME280;50675;53.530;-6.312;2023-05-20T07:27:14;102313.34;;;17.57;61.53
64343;BME280;50675;53.530;-6.312;2023-05-20T07:29:40;102304.56;;;17.55;61.42
64343;BME280;50675;53.530;-6.312;2023-05-20T07:32:07;102309.31;;;17.59;61.55
64343;BME280;50675;53.530;-6.312;2023-05-20T07:34:33;102309.66;;;17.63;61.71
64343;BME280;50675;53.530;-6.312;2023-05-20T07:36:59;102313.69;;;17.60;61.60
64343;BME280;50675;53.530;-6.312;2023-05-20T07:39:25;102314.84;;;17.64;61.52
64343;BME280;50675;53.530;-6.312;2023-05-20T07:41:51;102312.41;;;17.68;61.58
64343;BME280;50675;53.530;-6.312;2023-05-20T07:44:17;102312.94;;;17.65;61.56
64343;BME280;50675;53.530;-6.312;2023-05-20T07:46:44;102324.44;;;17.67;61.57
64343;BME280;50675;53.530;-6.312;2023-05-20T07:49:10;102319.03;;;17.72;61.64
64343;BME280;50675;53.530;-6.312;2023-05-20T07:51:36;102324.56;;;17.77;61.93
64343;BME280;50675;53.530;-6.312;2023-05-20T07:54:02;102323.94;;;17.70;61.75
64343;BME280;50675;53.530;-6.312;2023-05-20T07:56:27;102326.53;;;17.81;61.64
64343;BME280;50675;53.530;-6.312;2023-05-20T07:58:55;102324.94;;;17.85;61.82
64343;BME280;50675;53.530;-6.312;2023-05-20T08:04:36;102320.97;;;17.98;61.85
64343;BME280;50675;53.530;-6.312;2023-05-20T08:07:01;102315.97;;;18.17;61.72
64343;BME280;50675;53.530;-6.312;2023-05-20T08:09:27;102312.16;;;18.18;61.85
64343;BME280;50675;53.530;-6.312;2023-05-20T08:11:53;102313.03;;;18.23;62.06
64343;BME280;50675;53.530;-6.312;2023-05-20T08:14:19;102310.66;;;18.32;61.59
64343;BME280;50675;53.530;-6.312;2023-05-20T08:16:44;102313.78;;;18.46;61.50
64343;BME280;50675;53.530;-6.312;2023-05-20T08:19:10;102316.88;;;18.54;61.81
64343;BME280;50675;53.530;-6.312;2023-05-20T08:21:36;102312.03;;;18.61;61.64
64343;BME280;50675;53.530;-6.312;2023-05-20T08:24:03;102307.44;;;18.67;61.84
64343;BME280;50675;53.530;-6.312;2023-05-20T08:26:29;102307.47;;;18.72;61.47
64343;BME280;50675;53.530;-6.312;2023-05-20T08:28:54;102305.06;;;18.81;61.66
64343;BME280;50675;53.530;-6.312;2023-05-20T08:31:20;102298.50;;;18.82;61.81
64343;BME280;50675;53.530;-6.312;2023-05-20T08:33:46;102296.59;;;18.87;61.88
64343;BME280;50675;53.530;-6.312;2023-05-20T08:36:12;102288.97;;;18.89;61.78
64343;BME280;50675;53.530;-6.312;2023-05-20T08:38:38;102309.28;;;18.98;61.47
64343;BME280;50675;53.530;-6.312;2023-05-20T08:41:03;102297.75;;;18.96;61.49
64343;BME280;50675;53.530;-6.312;2023-05-20T08:43:29;102310.97;;;19.04;61.56
64343;BME280;50675;53.530;-6.312;2023-05-20T08:45:56;102293.38;;;18.90;61.64
64343;BME280;50675;53.530;-6.312;2023-05-20T08:48:25;102289.31;;;19.03;61.45
64343;BME280;50675;53.530;-6.312;2023-05-20T08:50:52;102284.97;;;19.07;61.57
64343;BME280;50675;53.530;-6.312;2023-05-20T08:53:21;102287.16;;;19.05;61.64
64343;BME280;50675;53.530;-6.312;2023-05-20T08:55:55;102287.97;;;19.10;61.38
64343;BME280;50675;53.530;-6.312;2023-05-20T08:58:23;102294.06;;;19.17;61.19
64343;BME280;50675;53.530;-6.312;2023-05-20T09:00:50;102289.06;;;19.04;61.18
64343;BME280;50675;53.530;-6.312;2023-05-20T09:03:17;102286.88;;;19.06;61.13
64343;BME280;50675;53.530;-6.312;2023-05-20T09:05:45;102290.25;;;19.18;60.92
64343;BME280;50675;53.530;-6.312;2023-05-20T09:08:11;102280.09;;;19.14;61.20
64343;BME280;50675;53.530;-6.312;2023-05-20T09:10:38;102282.31;;;19.22;61.07
64343;BME280;50675;53.530;-6.312;2023-05-20T09:13:05;102280.06;;;19.09;61.06
64343;BME280;50675;53.530;-6.312;2023-05-20T09:15:37;102279.81;;;19.20;61.02
64343;BME280;50675;53.530;-6.312;2023-05-20T09:18:06;102273.00;;;19.23;61.34
64343;BME280;50675;53.530;-6.312;2023-05-20T09:20:36;102274.97;;;19.33;61.26
64343;BME280;50675;53.530;-6.312;2023-05-20T09:23:04;102260.69;;;19.31;60.97
64343;BME280;50675;53.530;-6.312;2023-05-20T09:25:31;102265.09;;;19.32;61.21
64343;BME280;50675;53.530;-6.312;2023-05-20T09:27:57;102263.38;;;19.15;61.03
64343;BME280;50675;53.530;-6.312;2023-05-20T09:30:24;102267.72;;;19.11;60.67
64343;BME280;50675;53.530;-6.312;2023-05-20T09:32:59;102268.84;;;19.15;60.89
64343;BME280;50675;53.530;-6.312;2023-05-20T09:35:26;102270.75;;;19.10;60.60
64343;BME280;50675;53.530;-6.312;2023-05-20T09:37:55;102267.72;;;19.11;60.70
64343;BME280;50675;53.530;-6.312;2023-05-20T09:40:25;102269.97;;;19.19;60.71
64343;BME280;50675;53.530;-6.312;2023-05-20T09:45:18;102271.09;;;19.23;60.49
64343;BME280;50675;53.530;-6.312;2023-05-20T09:47:44;102273.00;;;19.23;60.61
64343;BME280;50675;53.530;-6.312;2023-05-20T09:50:11;102266.72;;;19.28;60.64
64343;BME280;50675;53.530;-6.312;2023-05-20T09:52:38;102271.38;;;19.27;60.80
64343;BME280;50675;53.530;-6.312;2023-05-20T09:55:05;102262.63;;;19.30;60.74
64343;BME280;50675;53.530;-6.312;2023-05-20T09:57:33;102266.75;;;19.33;60.29
64343;BME280;50675;53.530;-6.312;2023-05-20T10:00:00;102263.75;;;19.39;60.36
64343;BME280;50675;53.530;-6.312;2023-05-20T10:02:26;102266.19;;;19.36;60.28
64343;BME280;50675;53.530;-6.312;2023-05-20T10:04:54;102271.44;;;19.42;60.53
64343;BME280;50675;53.530;-6.312;2023-05-20T10:16:12;102269.91;;;19.61;59.96
64343;BME280;50675;53.530;-6.312;2023-05-20T10:21:16;102269.44;;;19.90;60.07
64343;BME280;50675;53.530;-6.312;2023-05-20T10:23:43;102264.78;;;19.95;60.16
64343;BME280;50675;53.530;-6.312;2023-05-20T10:26:09;102263.97;;;20.00;59.97
64343;BME280;50675;53.530;-6.312;2023-05-20T10:28:36;102260.94;;;20.12;60.01
64343;BME280;50675;53.530;-6.312;2023-05-20T10:31:20;102257.66;;;20.20;59.72
64343;BME280;50675;53.530;-6.312;2023-05-20T10:33:46;102257.38;;;20.16;59.89
64343;BME280;50675;53.530;-6.312;2023-05-20T10:36:24;102259.59;;;20.24;59.98
64343;BME280;50675;53.530;-6.312;2023-05-20T10:38:55;102253.56;;;20.17;59.67
64343;BME280;50675;53.530;-6.312;2023-05-20T10:41:23;102245.84;;;20.29;59.77
64343;BME280;50675;53.530;-6.312;2023-05-20T10:44:01;102246.44;;;20.36;59.68
64343;BME280;50675;53.530;-6.312;2023-05-20T10:46:29;102257.69;;;20.35;59.77
64343;BME280;50675;53.530;-6.312;2023-05-20T10:48:55;102249.72;;;20.48;59.21
64343;BME280;50675;53.530;-6.312;2023-05-20T10:51:21;102248.38;;;20.41;59.16
64343;BME280;50675;53.530;-6.312;2023-05-20T10:53:46;102240.13;;;20.46;59.16
64343;BME280;50675;53.530;-6.312;2023-05-20T10:56:16;102234.66;;;20.36;58.95
64343;BME280;50675;53.530;-6.312;2023-05-20T10:58:46;102244.78;;;20.35;58.96
64343;BME280;50675;53.530;-6.312;2023-05-20T11:01:12;102234.66;;;20.41;58.90
64343;BME280;50675;53.530;-6.312;2023-05-20T11:03:40;102245.06;;;20.49;58.94
64343;BME280;50675;53.530;-6.312;2023-05-20T11:06:18;102253.56;;;20.58;58.80
64343;BME280;50675;53.530;-6.312;2023-05-20T11:08:44;102245.63;;;20.56;58.37
64343;BME280;50675;53.530;-6.312;2023-05-20T11:11:14;102239.31;;;20.45;58.48
64343;BME280;50675;53.530;-6.312;2023-05-20T11:13:40;102241.78;;;20.52;58.32
64343;BME280;50675;53.530;-6.312;2023-05-20T11:16:06;102244.78;;;20.50;58.25
64343;BME280;50675;53.530;-6.312;2023-05-20T11:18:32;102242.31;;;20.59;58.41
64343;BME280;50675;53.530;-6.312;2023-05-20T11:20:58;102237.94;;;20.48;58.10
64343;BME280;50675;53.530;-6.312;2023-05-20T11:23:26;102231.34;;;20.49;58.09
64343;BME280;50675;53.530;-6.312;2023-05-20T11:25:54;102237.38;;;20.51;58.09
64343;BME280;50675;53.530;-6.312;2023-05-20T11:28:21;102237.91;;;20.53;58.15
64343;BME280;50675;53.530;-6.312;2023-05-20T11:30:50;102233.81;;;20.45;57.71
64343;BME280;50675;53.530;-6.312;2023-05-20T11:33:17;102236.28;;;20.42;57.70
64343;BME280;50675;53.530;-6.312;2023-05-20T11:35:47;102236.03;;;20.33;57.76
64343;BME280;50675;53.530;-6.312;2023-05-20T11:38:14;102226.41;;;20.36;57.63
64343;BME280;50675;53.530;-6.312;2023-05-20T11:43:13;102229.97;;;20.46;57.66
64343;BME280;50675;53.530;-6.312;2023-05-20T11:45:43;102223.66;;;20.46;57.59
64343;BME280;50675;53.530;-6.312;2023-05-20T11:48:09;102216.78;;;20.48;57.19
64343;BME280;50675;53.530;-6.312;2023-05-20T11:50:43;102223.66;;;20.56;57.46
64343;BME280;50675;53.530;-6.312;2023-05-20T11:53:13;102219.50;;;20.64;57.45
64343;BME280;50675;53.530;-6.312;2023-05-20T11:55:56;102217.59;;;20.69;57.54
64343;BME280;50675;53.530;-6.312;2023-05-20T11:58:30;102210.97;;;20.80;57.23
64343;BME280;50675;53.530;-6.312;2023-05-20T12:00:56;102215.09;;;20.78;57.33
64343;BME280;50675;53.530;-6.312;2023-05-20T12:03:23;102210.13;;;20.85;57.48
64343;BME280;50675;53.530;-6.312;2023-05-20T12:05:49;102214.25;;;20.82;57.35
64343;BME280;50675;53.530;-6.312;2023-05-20T12:08:15;102208.72;;;20.92;57.33
64343;BME280;50675;53.530;-6.312;2023-05-20T12:10:41;102198.81;;;21.02;56.91
64343;BME280;50675;53.530;-6.312;2023-05-20T12:13:09;102206.25;;;20.91;56.75
64343;BME280;50675;53.530;-6.312;2023-05-20T12:15:40;102202.94;;;21.04;57.05
64343;BME280;50675;53.530;-6.312;2023-05-20T12:18:06;102212.78;;;21.05;56.70
64343;BME280;50675;53.530;-6.312;2023-05-20T12:20:32;102203.75;;;21.10;56.71
64343;BME280;50675;53.530;-6.312;2023-05-20T12:22:59;102208.41;;;21.14;56.68
64343;BME280;50675;53.530;-6.312;2023-05-20T12:25:26;102202.09;;;21.09;56.36
64343;BME280;50675;53.530;-6.312;2023-05-20T12:27:52;102195.22;;;21.16;56.39
64343;BME280;50675;53.530;-6.312;2023-05-20T12:30:20;102208.94;;;21.21;56.39
64343;BME280;50675;53.530;-6.312;2023-05-20T12:32:47;102213.06;;;21.24;56.37
64343;BME280;50675;53.530;-6.312;2023-05-20T12:35:14;102202.59;;;21.21;56.30
64343;BME280;50675;53.530;-6.312;2023-05-20T12:37:41;102204.22;;;21.32;56.23
64343;BME280;50675;53.530;-6.312;2023-05-20T12:40:08;102195.13;;;21.31;56.25
64343;BME280;50675;53.530;-6.312;2023-05-20T12:42:35;102197.53;;;21.43;55.91
64343;BME280;50675;53.530;-6.312;2023-05-20T12:45:00;102192.97;;;21.28;55.72
64343;BME280;50675;53.530;-6.312;2023-05-20T12:47:26;102183.59;;;21.29;56.03
64343;BME280;50675;53.530;-6.312;2023-05-20T12:49:52;102186.63;;;21.28;55.62
64343;BME280;50675;53.530;-6.312;2023-05-20T12:52:18;102196.03;;;21.17;55.69
64343;BME280;50675;53.530;-6.312;2023-05-20T14:39:29;102095.47;;;21.06;53.30
64343;BME280;50675;53.530;-6.312;2023-05-20T14:42:29;102085.63;;;21.05;52.95
64343;BME280;50675;53.530;-6.312;2023-05-20T14:45:27;102080.72;;;20.91;53.39
64343;BME280;50675;53.530;-6.312;2023-05-20T14:48:36;102085.94;;;20.93;53.13
64343;BME280;50675;53.530;-6.312;2023-05-20T14:51:08;102079.31;;;20.99;53.05
64343;BME280;50675;53.530;-6.312;2023-05-20T14:53:43;102075.81;;;20.88;52.92
64343;BME280;50675;53.530;-6.312;2023-05-20T14:56:29;102078.50;;;20.99;53.12
64343;BME280;50675;53.530;-6.312;2023-05-20T14:59:32;102068.63;;;20.92;52.98
64343;BME280;50675;53.530;-6.312;2023-05-20T15:02:40;102066.72;;;20.88;52.83
64343;BME280;50675;53.530;-6.312;2023-05-20T15:27:15;102058.03;;;20.76;52.58
64343;BME280;50675;53.530;-6.312;2023-05-20T15:29:41;102059.63;;;20.77;52.48
64343;BME280;50675;53.530;-6.312;2023-05-20T15:32:07;102061.28;;;20.78;52.56
64343;BME280;50675;53.530;-6.312;2023-05-20T15:34:33;102053.88;;;20.78;52.68
64343;BME280;50675;53.530;-6.312;2023-05-20T15:36:58;102054.44;;;20.80;52.67
64343;BME280;50675;53.530;-6.312;2023-05-20T15:39:24;102052.81;;;20.74;52.47
64343;BME280;50675;53.530;-6.312;2023-05-20T15:41:51;102056.59;;;20.83;52.32
64343;BME280;50675;53.530;-6.312;2023-05-20T15:44:17;102052.75;;;20.84;52.50
64343;BME280;50675;53.530;-6.312;2023-05-20T15:46:43;102056.31;;;20.85;52.37
64343;BME280;50675;53.530;-6.312;2023-05-20T15:49:12;102062.63;;;20.85;52.35
64343;BME280;50675;53.530;-6.312;2023-05-20T15:51:38;102063.22;;;20.72;52.28
64343;BME280;50675;53.530;-6.312;2023-05-20T15:54:04;102060.50;;;20.67;52.17
64343;BME280;50675;53.530;-6.312;2023-05-20T15:56:30;102054.94;;;20.82;52.52
64343;BME280;50675;53.530;-6.312;2023-05-20T15:58:56;102053.84;;;20.83;52.42
64343;BME280;50675;53.530;-6.312;2023-05-20T16:01:21;102050.84;;;20.85;52.24
64343;BME280;50675;53.530;-6.312;2023-05-20T16:03:47;102058.25;;;20.84;52.27
64343;BME280;50675;53.530;-6.312;2023-05-20T16:06:13;102061.00;;;20.84;52.30
64343;BME280;50675;53.530;-6.312;2023-05-20T16:08:40;102054.41;;;20.85;52.14
64343;BME280;50675;53.530;-6.312;2023-05-20T16:11:06;102046.47;;;20.79;52.28
64343;BME280;50675;53.530;-6.312;2023-05-20T16:13:32;102040.16;;;20.78;51.86
64343;BME280;50675;53.530;-6.312;2023-05-20T16:15:58;102035.50;;;20.74;52.02
64343;BME280;50675;53.530;-6.312;2023-05-20T16:18:25;102037.16;;;20.75;51.83
64343;BME280;50675;53.530;-6.312;2023-05-20T16:20:55;102028.06;;;20.79;51.85
64343;BME280;50675;53.530;-6.312;2023-05-20T16:23:22;102032.94;;;20.87;51.83
64343;BME280;50675;53.530;-6.312;2023-05-20T16:25:48;102033.25;;;20.86;51.82
64343;BME280;50675;53.530;-6.312;2023-05-20T16:28:14;102021.69;;;20.89;51.82
64343;BME280;50675;53.530;-6.312;2023-05-20T16:30:40;102031.81;;;20.93;52.11
64343;BME280;50675;53.530;-6.312;2023-05-20T16:33:06;102030.97;;;20.98;52.03
64343;BME280;50675;53.530;-6.312;2023-05-20T16:35:32;102027.47;;;20.87;51.97
64343;BME280;50675;53.530;-6.312;2023-05-20T16:37:58;102025.94;;;20.66;51.74
64343;BME280;50675;53.530;-6.312;2023-05-20T16:40:24;102021.81;;;20.64;52.13
64343;BME280;50675;53.530;-6.312;2023-05-20T16:42:50;102024.25;;;20.75;51.91
64343;BME280;50675;53.530;-6.312;2023-05-20T16:45:16;102014.09;;;20.76;52.11
64343;BME280;50675;53.530;-6.312;2023-05-20T16:47:42;102011.09;;;20.67;52.09
64343;BME280;50675;53.530;-6.312;2023-05-20T16:50:08;102008.69;;;20.56;51.67
64343;BME280;50675;53.530;-6.312;2023-05-20T16:52:35;101996.56;;;20.67;51.72
64343;BME280;50675;53.530;-6.312;2023-05-20T16:55:03;102001.78;;;20.63;51.70
64343;BME280;50675;53.530;-6.312;2023-05-20T16:57:29;102001.22;;;20.71;51.77
64343;BME280;50675;53.530;-6.312;2023-05-20T16:59:56;101997.34;;;20.72;51.76
64343;BME280;50675;53.530;-6.312;2023-05-20T17:02:22;101996.22;;;20.73;51.75
64343;BME280;50675;53.530;-6.312;2023-05-20T17:04:49;101996.34;;;20.53;51.76
64343;BME280;50675;53.530;-6.312;2023-05-20T17:07:15;101996.09;;;20.49;51.60
64343;BME280;50675;53.530;-6.312;2023-05-20T17:09:40;101987.59;;;20.46;51.69